Portada
METAR-TAF:

METAR-TAF

Aeroports :

Waynesville Regional Airport at Forney Field

Fort Leonard Wood, Missouri, Estats Units d'Amèrica

latitud: 37-44N, longitud: 092-08W, altitud: 353 m

Observació

L'informe es va fer fa 52 minuts, a les 17:55 UTC
Vent 4 kt del Est
Temperatura 29°C
Humitat 55%
Pressió 1025 hPa
Visibilitat: 16.1 km
Cel ennuvolat a una alçada de 4200 ft
Cel ennuvolat a una alçada de 17000 ft

METAR: KTBN 201755Z AUTO 09004KT 10SM BKN042 BKN170 29/19 A3028 RMK AO2 SLP246 T02900190 10303 20210 56003

Hora: 13:47 (18:47 UTC)

Pronòstic

L'informe es va fer fa 5 hores i 47 minuts, a les 13:00 UTC
Pronòstic vàlid del 20 a les 13 UTC al 21 a les 19 UTC
Vent 9 kt del Sud/Sud-Est
Visibilitat 10 km o més
Escasses núvols a una alçada de 5000 ft
Núvols disperses a una alçada de 17000 ft

TAF: KTBN 201300Z 2013/2119 16009KT 9999 FEW050 SCT170 QNH3021INS TX31/2021Z TN21/2112Z

Observacions i pronòstics meteorològics de més de 4000 aeroports (METAR i TAF).

Les estacions disponibles són els punts grocs i vermells al mapa.

Posi el ratolí al punt desitjat per veure el nom de l'estació.

Feu clic per veure les observacions i els pronòstics meteorològics.

Per canviar el mapa: feu clic els botons verds amb una creu de color negre per apropar; al botó verd amb un guió per allunyar la imatge; o en les fletxes verdes per a mapes adjacents.


METAR-TAF: